sensor_id;sensor_type;location;lat;lon;timestamp;temperature;humidity
10175;DHT22;18221;38.704;0.152;2022-09-03T00:08:29;25.80;99.90
10175;DHT22;18221;38.704;0.152;2022-09-03T00:11:06;25.80;99.90
10175;DHT22;18221;38.704;0.152;2022-09-03T00:13:45;25.70;99.90
10175;DHT22;18221;38.704;0.152;2022-09-03T00:16:20;25.70;99.90
10175;DHT22;18221;38.704;0.152;2022-09-03T00:18:54;25.70;99.90
10175;DHT22;18221;38.704;0.152;2022-09-03T00:21:36;25.70;99.90
10175;DHT22;18221;38.704;0.152;2022-09-03T00:24:09;25.70;99.90
10175;DHT22;18221;38.704;0.152;2022-09-03T00:26:46;25.70;99.90
10175;DHT22;18221;38.704;0.152;2022-09-03T00:29:22;25.70;99.90
10175;DHT22;18221;38.704;0.152;2022-09-03T00:31:55;25.80;99.90
10175;DHT22;18221;38.704;0.152;2022-09-03T00:34:30;25.80;99.90
10175;DHT22;18221;38.704;0.152;2022-09-03T00:37:04;25.70;99.90
10175;DHT22;18221;38.704;0.152;2022-09-03T00:39:34;25.70;99.90
10175;DHT22;18221;38.704;0.152;2022-09-03T00:42:13;25.70;99.90
10175;DHT22;18221;38.704;0.152;2022-09-03T00:48:06;25.60;99.90
10175;DHT22;18221;38.704;0.152;2022-09-03T00:50:55;25.50;99.90
10175;DHT22;18221;38.704;0.152;2022-09-03T00:53:38;25.40;99.90
10175;DHT22;18221;38.704;0.152;2022-09-03T00:56:18;25.40;99.90
10175;DHT22;18221;38.704;0.152;2022-09-03T00:59:05;25.30;99.90
10175;DHT22;18221;38.704;0.152;2022-09-03T01:01:58;25.30;99.90
10175;DHT22;18221;38.704;0.152;2022-09-03T01:04:43;25.40;99.90
10175;DHT22;18221;38.704;0.152;2022-09-03T01:07:25;25.40;99.90
10175;DHT22;18221;38.704;0.152;2022-09-03T01:10:09;25.40;99.90
10175;DHT22;18221;38.704;0.152;2022-09-03T01:12:53;25.40;99.90
10175;DHT22;18221;38.704;0.152;2022-09-03T01:15:38;25.40;99.90
10175;DHT22;18221;38.704;0.152;2022-09-03T01:18:21;25.40;99.90
10175;DHT22;18221;38.704;0.152;2022-09-03T01:21:07;25.40;99.90
10175;DHT22;18221;38.704;0.152;2022-09-03T01:24:10;25.40;99.90
10175;DHT22;18221;38.704;0.152;2022-09-03T01:27:10;25.30;99.90
10175;DHT22;18221;38.704;0.152;2022-09-03T01:29:52;25.30;99.90
10175;DHT22;18221;38.704;0.152;2022-09-03T01:32:35;25.30;99.90
10175;DHT22;18221;38.704;0.152;2022-09-03T01:35:16;25.40;99.90
10175;DHT22;18221;38.704;0.152;2022-09-03T01:38:00;25.40;99.90
10175;DHT22;18221;38.704;0.152;2022-09-03T01:40:42;25.50;99.90
10175;DHT22;18221;38.704;0.152;2022-09-03T01:43:29;25.50;99.90
10175;DHT22;18221;38.704;0.152;2022-09-03T01:46:11;25.50;99.90
10175;DHT22;18221;38.704;0.152;2022-09-03T01:48:51;25.70;99.90
10175;DHT22;18221;38.704;0.152;2022-09-03T01:51:28;25.80;99.90
10175;DHT22;18221;38.704;0.152;2022-09-03T01:54:31;25.90;99.90
10175;DHT22;18221;38.704;0.152;2022-09-03T01:57:34;25.90;99.90
10175;DHT22;18221;38.704;0.152;2022-09-03T02:00:10;26.00;99.90
10175;DHT22;18221;38.704;0.152;2022-09-03T02:02:44;26.00;99.90
10175;DHT22;18221;38.704;0.152;2022-09-03T02:05:16;26.00;99.90
10175;DHT22;18221;38.704;0.152;2022-09-03T02:07:47;25.60;99.90
10175;DHT22;18221;38.704;0.152;2022-09-03T02:10:19;26.00;99.90
10175;DHT22;18221;38.704;0.152;2022-09-03T02:12:57;26.00;99.90
10175;DHT22;18221;38.704;0.152;2022-09-03T02:15:28;25.90;99.90
10175;DHT22;18221;38.704;0.152;2022-09-03T02:18:02;26.00;99.90
10175;DHT22;18221;38.704;0.152;2022-09-03T02:20:33;26.10;99.90
10175;DHT22;18221;38.704;0.152;2022-09-03T02:23:01;26.00;99.90
10175;DHT22;18221;38.704;0.152;2022-09-03T02:25:33;26.00;99.90
10175;DHT22;18221;38.704;0.152;2022-09-03T02:28:04;26.00;99.90
10175;DHT22;18221;38.704;0.152;2022-09-03T02:30:33;26.00;99.90
10175;DHT22;18221;38.704;0.152;2022-09-03T02:33:03;25.80;99.90
10175;DHT22;18221;38.704;0.152;2022-09-03T02:35:31;25.80;99.90
10175;DHT22;18221;38.704;0.152;2022-09-03T02:38:09;25.80;99.90
10175;DHT22;18221;38.704;0.152;2022-09-03T02:40:38;25.80;99.90
10175;DHT22;18221;38.704;0.152;2022-09-03T02:43:09;25.80;99.90
10175;DHT22;18221;38.704;0.152;2022-09-03T02:45:44;25.80;99.90
10175;DHT22;18221;38.704;0.152;2022-09-03T02:48:17;25.90;99.90
10175;DHT22;18221;38.704;0.152;2022-09-03T02:50:49;25.90;99.90
10175;DHT22;18221;38.704;0.152;2022-09-03T02:53:17;25.90;99.90
10175;DHT22;18221;38.704;0.152;2022-09-03T02:55:45;25.90;99.90
10175;DHT22;18221;38.704;0.152;2022-09-03T02:58:13;26.00;99.90
10175;DHT22;18221;38.704;0.152;2022-09-03T03:00:42;26.00;99.90
10175;DHT22;18221;38.704;0.152;2022-09-03T03:03:10;26.00;99.90
10175;DHT22;18221;38.704;0.152;2022-09-03T03:05:42;26.10;99.90
10175;DHT22;18221;38.704;0.152;2022-09-03T03:08:13;26.10;99.90
10175;DHT22;18221;38.704;0.152;2022-09-03T03:10:42;26.10;99.90
10175;DHT22;18221;38.704;0.152;2022-09-03T03:13:11;26.10;99.90
10175;DHT22;18221;38.704;0.152;2022-09-03T03:15:40;26.20;99.90
10175;DHT22;18221;38.704;0.152;2022-09-03T03:18:08;26.20;99.90
10175;DHT22;18221;38.704;0.152;2022-09-03T03:20:37;26.10;99.90
10175;DHT22;18221;38.704;0.152;2022-09-03T03:23:07;26.10;99.90
10175;DHT22;18221;38.704;0.152;2022-09-03T03:25:37;26.00;99.90
10175;DHT22;18221;38.704;0.152;2022-09-03T03:28:06;26.00;99.90
10175;DHT22;18221;38.704;0.152;2022-09-03T03:30:36;25.90;99.90
10175;DHT22;18221;38.704;0.152;2022-09-03T03:33:07;25.90;99.90
10175;DHT22;18221;38.704;0.152;2022-09-03T03:35:36;25.90;99.90
10175;DHT22;18221;38.704;0.152;2022-09-03T03:38:07;25.80;99.90
10175;DHT22;18221;38.704;0.152;2022-09-03T03:40:36;25.90;99.90
10175;DHT22;18221;38.704;0.152;2022-09-03T03:43:04;25.90;99.90
10175;DHT22;18221;38.704;0.152;2022-09-03T03:45:32;25.90;99.90
10175;DHT22;18221;38.704;0.152;2022-09-03T03:48:00;26.00;99.90
10175;DHT22;18221;38.704;0.152;2022-09-03T03:50:28;26.00;99.90
10175;DHT22;18221;38.704;0.152;2022-09-03T03:52:58;26.10;99.90
10175;DHT22;18221;38.704;0.152;2022-09-03T03:55:28;26.10;99.90
10175;DHT22;18221;38.704;0.152;2022-09-03T03:57:57;26.10;99.90
10175;DHT22;18221;38.704;0.152;2022-09-03T04:00:25;26.20;99.90
10175;DHT22;18221;38.704;0.152;2022-09-03T04:02:53;26.20;99.90
10175;DHT22;18221;38.704;0.152;2022-09-03T04:05:21;26.10;99.90
10175;DHT22;18221;38.704;0.152;2022-09-03T04:07:49;26.10;99.90
10175;DHT22;18221;38.704;0.152;2022-09-03T04:10:17;26.00;99.90
10175;DHT22;18221;38.704;0.152;2022-09-03T04:12:46;25.90;99.90
10175;DHT22;18221;38.704;0.152;2022-09-03T04:15:14;25.80;99.90
10175;DHT22;18221;38.704;0.152;2022-09-03T04:17:42;25.80;99.90
10175;DHT22;18221;38.704;0.152;2022-09-03T04:20:10;25.80;99.90
10175;DHT22;18221;38.704;0.152;2022-09-03T04:22:38;25.70;99.90
10175;DHT22;18221;38.704;0.152;2022-09-03T04:25:07;25.70;99.90
10175;DHT22;18221;38.704;0.152;2022-09-03T04:27:35;26.00;99.90
10175;DHT22;18221;38.704;0.152;2022-09-03T04:30:06;25.70;99.90
10175;DHT22;18221;38.704;0.152;2022-09-03T04:32:34;25.80;99.90
10175;DHT22;18221;38.704;0.152;2022-09-03T04:35:22;25.90;99.90
10175;DHT22;18221;38.704;0.152;2022-09-03T04:37:51;26.00;99.90
10175;DHT22;18221;38.704;0.152;2022-09-03T04:40:20;26.10;99.90
10175;DHT22;18221;38.704;0.152;2022-09-03T04:42:48;26.10;99.90
10175;DHT22;18221;38.704;0.152;2022-09-03T04:45:18;26.20;99.90
10175;DHT22;18221;38.704;0.152;2022-09-03T04:47:55;26.20;99.90
10175;DHT22;18221;38.704;0.152;2022-09-03T04:50:24;26.20;99.90
10175;DHT22;18221;38.704;0.152;2022-09-03T04:52:54;26.10;99.90
10175;DHT22;18221;38.704;0.152;2022-09-03T04:55:24;26.10;99.90
10175;DHT22;18221;38.704;0.152;2022-09-03T04:57:52;26.20;99.90
10175;DHT22;18221;38.704;0.152;2022-09-03T05:00:22;26.20;99.20
10175;DHT22;18221;38.704;0.152;2022-09-03T05:02:50;26.20;99.90
10175;DHT22;18221;38.704;0.152;2022-09-03T05:05:18;26.10;99.40
10175;DHT22;18221;38.704;0.152;2022-09-03T05:07:46;26.10;99.90
10175;DHT22;18221;38.704;0.152;2022-09-03T05:10:15;26.10;99.30
10175;DHT22;18221;38.704;0.152;2022-09-03T05:12:45;26.10;99.90
10175;DHT22;18221;38.704;0.152;2022-09-03T05:15:14;26.10;99.90
10175;DHT22;18221;38.704;0.152;2022-09-03T05:17:44;26.10;99.90
10175;DHT22;18221;38.704;0.152;2022-09-03T05:20:12;26.10;99.20
10175;DHT22;18221;38.704;0.152;2022-09-03T05:22:40;26.10;99.20
10175;DHT22;18221;38.704;0.152;2022-09-03T05:25:09;26.10;99.70
10175;DHT22;18221;38.704;0.152;2022-09-03T05:27:36;26.10;99.90
10175;DHT22;18221;38.704;0.152;2022-09-03T05:30:05;26.10;99.70
10175;DHT22;18221;38.704;0.152;2022-09-03T05:32:34;26.00;99.80
10175;DHT22;18221;38.704;0.152;2022-09-03T05:35:04;26.00;98.50
10175;DHT22;18221;38.704;0.152;2022-09-03T05:37:33;26.00;98.40
10175;DHT22;18221;38.704;0.152;2022-09-03T05:40:01;26.00;98.50
10175;DHT22;18221;38.704;0.152;2022-09-03T05:42:29;26.00;98.60
10175;DHT22;18221;38.704;0.152;2022-09-03T05:45:05;26.00;97.60
10175;DHT22;18221;38.704;0.152;2022-09-03T05:47:36;26.10;97.90
10175;DHT22;18221;38.704;0.152;2022-09-03T05:50:08;26.10;99.20
10175;DHT22;18221;38.704;0.152;2022-09-03T05:52:36;26.00;99.30
10175;DHT22;18221;38.704;0.152;2022-09-03T05:55:04;26.00;99.60
10175;DHT22;18221;38.704;0.152;2022-09-03T05:57:32;25.90;99.90
10175;DHT22;18221;38.704;0.152;2022-09-03T06:00:02;25.90;99.90
10175;DHT22;18221;38.704;0.152;2022-09-03T06:02:30;25.90;99.90
10175;DHT22;18221;38.704;0.152;2022-09-03T06:04:58;25.80;99.90
10175;DHT22;18221;38.704;0.152;2022-09-03T06:07:27;25.80;99.90
10175;DHT22;18221;38.704;0.152;2022-09-03T06:09:56;25.80;99.90
10175;DHT22;18221;38.704;0.152;2022-09-03T06:12:23;25.80;99.90
10175;DHT22;18221;38.704;0.152;2022-09-03T06:14:52;25.70;99.90
10175;DHT22;18221;38.704;0.152;2022-09-03T06:17:19;25.70;99.90
10175;DHT22;18221;38.704;0.152;2022-09-03T06:19:47;25.70;99.90
10175;DHT22;18221;38.704;0.152;2022-09-03T06:22:15;25.60;99.90
10175;DHT22;18221;38.704;0.152;2022-09-03T06:24:44;25.70;99.90
10175;DHT22;18221;38.704;0.152;2022-09-03T06:27:12;25.70;99.90
10175;DHT22;18221;38.704;0.152;2022-09-03T06:29:40;25.80;99.90
10175;DHT22;18221;38.704;0.152;2022-09-03T06:32:09;25.80;99.70
10175;DHT22;18221;38.704;0.152;2022-09-03T06:34:37;25.80;98.90
10175;DHT22;18221;38.704;0.152;2022-09-03T06:37:05;25.90;99.60
10175;DHT22;18221;38.704;0.152;2022-09-03T06:39:33;25.90;99.10
10175;DHT22;18221;38.704;0.152;2022-09-03T06:42:02;25.90;98.90
10175;DHT22;18221;38.704;0.152;2022-09-03T06:44:30;25.90;98.70
10175;DHT22;18221;38.704;0.152;2022-09-03T06:46:58;25.90;98.30
10175;DHT22;18221;38.704;0.152;2022-09-03T06:49:26;26.00;98.20
10175;DHT22;18221;38.704;0.152;2022-09-03T06:51:56;26.00;98.00
10175;DHT22;18221;38.704;0.152;2022-09-03T06:54:24;26.00;98.80
10175;DHT22;18221;38.704;0.152;2022-09-03T06:56:52;26.00;98.30
10175;DHT22;18221;38.704;0.152;2022-09-03T06:59:21;26.00;98.40
10175;DHT22;18221;38.704;0.152;2022-09-03T07:01:49;25.90;97.60
10175;DHT22;18221;38.704;0.152;2022-09-03T07:04:17;26.00;97.80
10175;DHT22;18221;38.704;0.152;2022-09-03T07:06:45;26.00;98.00
10175;DHT22;18221;38.704;0.152;2022-09-03T07:09:13;26.10;97.50
10175;DHT22;18221;38.704;0.152;2022-09-03T07:11:44;26.20;97.70
10175;DHT22;18221;38.704;0.152;2022-09-03T07:14:16;26.40;97.70
10175;DHT22;18221;38.704;0.152;2022-09-03T07:16:47;26.40;97.70
10175;DHT22;18221;38.704;0.152;2022-09-03T07:19:16;26.40;98.00
10175;DHT22;18221;38.704;0.152;2022-09-03T07:21:44;26.50;97.70
10175;DHT22;18221;38.704;0.152;2022-09-03T07:24:12;26.60;97.80
10175;DHT22;18221;38.704;0.152;2022-09-03T07:26:41;26.60;97.60
10175;DHT22;18221;38.704;0.152;2022-09-03T07:29:11;26.50;97.70
10175;DHT22;18221;38.704;0.152;2022-09-03T07:31:41;26.50;98.50
10175;DHT22;18221;38.704;0.152;2022-09-03T07:34:12;26.60;98.30
10175;DHT22;18221;38.704;0.152;2022-09-03T07:36:42;26.70;97.80
10175;DHT22;18221;38.704;0.152;2022-09-03T07:39:13;26.70;97.70
10175;DHT22;18221;38.704;0.152;2022-09-03T07:41:41;26.70;98.20
10175;DHT22;18221;38.704;0.152;2022-09-03T07:44:10;26.70;98.20
10175;DHT22;18221;38.704;0.152;2022-09-03T07:46:40;26.70;98.00
10175;DHT22;18221;38.704;0.152;2022-09-03T07:49:11;26.70;98.50
10175;DHT22;18221;38.704;0.152;2022-09-03T07:51:40;26.70;98.70
10175;DHT22;18221;38.704;0.152;2022-09-03T07:54:09;26.80;98.50
10175;DHT22;18221;38.704;0.152;2022-09-03T07:56:38;26.90;98.40
10175;DHT22;18221;38.704;0.152;2022-09-03T07:59:07;26.90;98.60
10175;DHT22;18221;38.704;0.152;2022-09-03T08:01:37;26.90;98.60
10175;DHT22;18221;38.704;0.152;2022-09-03T08:04:05;26.80;99.00
10175;DHT22;18221;38.704;0.152;2022-09-03T08:06:35;26.80;99.20
10175;DHT22;18221;38.704;0.152;2022-09-03T08:09:06;27.10;99.30
10175;DHT22;18221;38.704;0.152;2022-09-03T08:11:38;27.20;99.80
10175;DHT22;18221;38.704;0.152;2022-09-03T08:14:09;27.20;99.80
10175;DHT22;18221;38.704;0.152;2022-09-03T08:16:39;27.40;99.90
10175;DHT22;18221;38.704;0.152;2022-09-03T08:19:09;27.50;99.90
10175;DHT22;18221;38.704;0.152;2022-09-03T08:21:39;27.50;99.90
10175;DHT22;18221;38.704;0.152;2022-09-03T08:24:08;27.50;99.90
10175;DHT22;18221;38.704;0.152;2022-09-03T08:26:38;27.40;99.80
10175;DHT22;18221;38.704;0.152;2022-09-03T08:29:08;27.40;99.10
10175;DHT22;18221;38.704;0.152;2022-09-03T08:31:36;27.40;99.90
10175;DHT22;18221;38.704;0.152;2022-09-03T08:34:05;27.40;99.90
10175;DHT22;18221;38.704;0.152;2022-09-03T08:36:39;27.30;99.90
10175;DHT22;18221;38.704;0.152;2022-09-03T08:39:09;27.40;99.90
10175;DHT22;18221;38.704;0.152;2022-09-03T08:44:50;27.40;99.90
10175;DHT22;18221;38.704;0.152;2022-09-03T08:47:23;27.40;99.90
10175;DHT22;18221;38.704;0.152;2022-09-03T08:49:58;27.30;99.90
10175;DHT22;18221;38.704;0.152;2022-09-03T08:52:37;27.20;99.90
10175;DHT22;18221;38.704;0.152;2022-09-03T08:55:19;27.10;99.90
10175;DHT22;18221;38.704;0.152;2022-09-03T08:57:56;27.10;99.90
10175;DHT22;18221;38.704;0.152;2022-09-03T09:00:39;27.10;99.90
10175;DHT22;18221;38.704;0.152;2022-09-03T09:03:41;27.10;99.90
10175;DHT22;18221;38.704;0.152;2022-09-03T09:06:20;27.10;99.90
10175;DHT22;18221;38.704;0.152;2022-09-03T09:09:08;27.10;99.90
10175;DHT22;18221;38.704;0.152;2022-09-03T09:11:57;27.10;99.90
10175;DHT22;18221;38.704;0.152;2022-09-03T09:14:39;27.10;99.90
10175;DHT22;18221;38.704;0.152;2022-09-03T09:17:29;27.10;99.90
10175;DHT22;18221;38.704;0.152;2022-09-03T09:20:23;27.10;99.90
10175;DHT22;18221;38.704;0.152;2022-09-03T09:22:59;27.00;99.90
10175;DHT22;18221;38.704;0.152;2022-09-03T09:25:33;27.00;99.90
10175;DHT22;18221;38.704;0.152;2022-09-03T09:28:15;27.00;99.90
10175;DHT22;18221;38.704;0.152;2022-09-03T09:30:46;27.10;99.90
10175;DHT22;18221;38.704;0.152;2022-09-03T09:33:17;27.10;99.90
10175;DHT22;18221;38.704;0.152;2022-09-03T09:35:46;27.00;99.90
10175;DHT22;18221;38.704;0.152;2022-09-03T09:38:25;27.00;99.90
10175;DHT22;18221;38.704;0.152;2022-09-03T09:41:08;26.90;99.90
10175;DHT22;18221;38.704;0.152;2022-09-03T09:43:37;26.90;99.90
10175;DHT22;18221;38.704;0.152;2022-09-03T09:46:08;26.80;99.90
10175;DHT22;18221;38.704;0.152;2022-09-03T09:48:46;26.80;99.90
10175;DHT22;18221;38.704;0.152;2022-09-03T09:51:20;26.80;99.90
10175;DHT22;18221;38.704;0.152;2022-09-03T09:54:00;26.80;99.90
10175;DHT22;18221;38.704;0.152;2022-09-03T09:56:30;26.80;99.90
10175;DHT22;18221;38.704;0.152;2022-09-03T09:59:02;26.80;99.90
10175;DHT22;18221;38.704;0.152;2022-09-03T10:01:31;26.80;99.90
10175;DHT22;18221;38.704;0.152;2022-09-03T10:04:07;26.70;99.90
10175;DHT22;18221;38.704;0.152;2022-09-03T10:06:37;26.80;99.90
10175;DHT22;18221;38.704;0.152;2022-09-03T10:09:24;26.80;99.90
10175;DHT22;18221;38.704;0.152;2022-09-03T10:12:07;26.90;99.90
10175;DHT22;18221;38.704;0.152;2022-09-03T10:14:44;27.00;99.90
10175;DHT22;18221;38.704;0.152;2022-09-03T10:17:22;27.10;99.90
10175;DHT22;18221;38.704;0.152;2022-09-03T10:20:00;27.30;99.90
10175;DHT22;18221;38.704;0.152;2022-09-03T10:22:55;27.40;99.90
10175;DHT22;18221;38.704;0.152;2022-09-03T10:25:32;27.70;99.90
10175;DHT22;18221;38.704;0.152;2022-09-03T10:28:08;27.90;99.90
10175;DHT22;18221;38.704;0.152;2022-09-03T10:33:54;28.10;99.90
10175;DHT22;18221;38.704;0.152;2022-09-03T10:36:32;28.30;99.90
10175;DHT22;18221;38.704;0.152;2022-09-03T10:39:14;28.40;99.90
10175;DHT22;18221;38.704;0.152;2022-09-03T10:41:57;28.50;99.90
10175;DHT22;18221;38.704;0.152;2022-09-03T10:44:55;28.60;99.90
10175;DHT22;18221;38.704;0.152;2022-09-03T10:50:59;29.00;99.90
10175;DHT22;18221;38.704;0.152;2022-09-03T10:53:43;29.20;99.90
10175;DHT22;18221;38.704;0.152;2022-09-03T10:56:25;29.30;99.90
10175;DHT22;18221;38.704;0.152;2022-09-03T10:59:09;29.30;99.90
10175;DHT22;18221;38.704;0.152;2022-09-03T11:02:15;29.30;99.90
10175;DHT22;18221;38.704;0.152;2022-09-03T11:04:55;29.30;99.90
10175;DHT22;18221;38.704;0.152;2022-09-03T11:07:31;29.40;99.90
10175;DHT22;18221;38.704;0.152;2022-09-03T11:10:12;29.60;99.90
10175;DHT22;18221;38.704;0.152;2022-09-03T11:12:48;29.60;99.90
10175;DHT22;18221;38.704;0.152;2022-09-03T11:15:25;29.60;99.90
10175;DHT22;18221;38.704;0.152;2022-09-03T11:18:03;29.60;99.90
10175;DHT22;18221;38.704;0.152;2022-09-03T11:20:40;29.50;99.90
10175;DHT22;18221;38.704;0.152;2022-09-03T11:23:10;29.60;99.90
10175;DHT22;18221;38.704;0.152;2022-09-03T11:25:42;29.60;99.90
10175;DHT22;18221;38.704;0.152;2022-09-03T11:28:22;29.70;99.90
10175;DHT22;18221;38.704;0.152;2022-09-03T11:31:16;30.00;99.90
10175;DHT22;18221;38.704;0.152;2022-09-03T11:33:54;30.00;99.90
10175;DHT22;18221;38.704;0.152;2022-09-03T11:36:30;30.30;99.90
10175;DHT22;18221;38.704;0.152;2022-09-03T11:38:59;30.30;99.90
10175;DHT22;18221;38.704;0.152;2022-09-03T11:41:29;30.30;99.90
10175;DHT22;18221;38.704;0.152;2022-09-03T11:44:16;30.10;99.90
10175;DHT22;18221;38.704;0.152;2022-09-03T11:46:55;30.20;99.90
10175;DHT22;18221;38.704;0.152;2022-09-03T11:49:31;30.20;99.90
10175;DHT22;18221;38.704;0.152;2022-09-03T11:52:01;30.10;99.90
10175;DHT22;18221;38.704;0.152;2022-09-03T11:54:31;30.30;99.90
10175;DHT22;18221;38.704;0.152;2022-09-03T11:57:11;30.40;99.90
10175;DHT22;18221;38.704;0.152;2022-09-03T11:59:42;30.70;99.90
10175;DHT22;18221;38.704;0.152;2022-09-03T12:02:22;31.00;99.90
10175;DHT22;18221;38.704;0.152;2022-09-03T12:05:10;31.00;99.90
10175;DHT22;18221;38.704;0.152;2022-09-03T12:08:15;31.10;99.90
10175;DHT22;18221;38.704;0.152;2022-09-03T12:11:10;31.10;99.90
10175;DHT22;18221;38.704;0.152;2022-09-03T12:13:59;31.00;99.90
10175;DHT22;18221;38.704;0.152;2022-09-03T12:19:38;31.10;99.90
10175;DHT22;18221;38.704;0.152;2022-09-03T12:22:15;31.30;99.90
10175;DHT22;18221;38.704;0.152;2022-09-03T12:24:44;31.30;99.90
10175;DHT22;18221;38.704;0.152;2022-09-03T12:27:17;31.40;99.90
10175;DHT22;18221;38.704;0.152;2022-09-03T12:29:54;31.40;99.90
10175;DHT22;18221;38.704;0.152;2022-09-03T12:32:26;31.40;99.90
10175;DHT22;18221;38.704;0.152;2022-09-03T12:34:57;31.40;99.90
10175;DHT22;18221;38.704;0.152;2022-09-03T12:37:37;31.30;99.90
10175;DHT22;18221;38.704;0.152;2022-09-03T12:40:16;31.20;99.90
10175;DHT22;18221;38.704;0.152;2022-09-03T12:42:46;31.20;99.90
10175;DHT22;18221;38.704;0.152;2022-09-03T12:45:18;31.30;99.90
10175;DHT22;18221;38.704;0.152;2022-09-03T12:47:47;31.40;99.90
10175;DHT22;18221;38.704;0.152;2022-09-03T12:50:18;31.30;99.90
10175;DHT22;18221;38.704;0.152;2022-09-03T12:52:51;31.30;99.90
10175;DHT22;18221;38.704;0.152;2022-09-03T12:55:32;31.30;99.90
10175;DHT22;18221;38.704;0.152;2022-09-03T12:58:06;31.20;99.90
10175;DHT22;18221;38.704;0.152;2022-09-03T13:00:41;31.00;99.90
10175;DHT22;18221;38.704;0.152;2022-09-03T13:03:17;31.10;99.90
10175;DHT22;18221;38.704;0.152;2022-09-03T13:05:51;30.80;99.90
10175;DHT22;18221;38.704;0.152;2022-09-03T13:08:26;30.80;99.90
10175;DHT22;18221;38.704;0.152;2022-09-03T13:10:58;30.70;99.90
10175;DHT22;18221;38.704;0.152;2022-09-03T13:13:31;31.10;99.90
10175;DHT22;18221;38.704;0.152;2022-09-03T13:16:34;30.90;99.90
10175;DHT22;18221;38.704;0.152;2022-09-03T13:19:23;30.90;99.90
10175;DHT22;18221;38.704;0.152;2022-09-03T13:22:07;30.70;99.90
10175;DHT22;18221;38.704;0.152;2022-09-03T13:25:09;30.70;99.90
10175;DHT22;18221;38.704;0.152;2022-09-03T13:27:51;30.90;99.90
10175;DHT22;18221;38.704;0.152;2022-09-03T13:30:31;31.10;99.90
10175;DHT22;18221;38.704;0.152;2022-09-03T13:33:08;31.10;99.90
10175;DHT22;18221;38.704;0.152;2022-09-03T13:35:48;30.90;99.90
10175;DHT22;18221;38.704;0.152;2022-09-03T13:38:32;30.60;99.90
10175;DHT22;18221;38.704;0.152;2022-09-03T13:41:11;30.70;99.90
10175;DHT22;18221;38.704;0.152;2022-09-03T13:43:50;30.80;99.90
10175;DHT22;18221;38.704;0.152;2022-09-03T13:46:30;30.70;99.90
10175;DHT22;18221;38.704;0.152;2022-09-03T13:49:15;30.80;99.90
10175;DHT22;18221;38.704;0.152;2022-09-03T13:52:12;30.70;99.90
10175;DHT22;18221;38.704;0.152;2022-09-03T13:54:51;30.70;99.90
10175;DHT22;18221;38.704;0.152;2022-09-03T13:57:31;30.80;99.90
10175;DHT22;18221;38.704;0.152;2022-09-03T14:00:06;30.70;99.90
10175;DHT22;18221;38.704;0.152;2022-09-03T14:02:53;30.70;99.90
10175;DHT22;18221;38.704;0.152;2022-09-03T14:05:42;30.80;99.90
10175;DHT22;18221;38.704;0.152;2022-09-03T14:08:24;30.90;99.90
10175;DHT22;18221;38.704;0.152;2022-09-03T14:11:04;30.80;99.90
10175;DHT22;18221;38.704;0.152;2022-09-03T14:13:58;30.80;99.90
10175;DHT22;18221;38.704;0.152;2022-09-03T14:16:41;30.80;99.90
10175;DHT22;18221;38.704;0.152;2022-09-03T14:19:18;30.90;99.90
10175;DHT22;18221;38.704;0.152;2022-09-03T14:21:58;30.60;99.90
10175;DHT22;18221;38.704;0.152;2022-09-03T14:24:43;30.60;99.90
10175;DHT22;18221;38.704;0.152;2022-09-03T14:27:23;30.70;99.90
10175;DHT22;18221;38.704;0.152;2022-09-03T14:29:59;30.70;99.90
10175;DHT22;18221;38.704;0.152;2022-09-03T14:32:35;30.70;99.90
10175;DHT22;18221;38.704;0.152;2022-09-03T14:35:34;30.60;99.90
10175;DHT22;18221;38.704;0.152;2022-09-03T14:38:29;30.50;99.90
10175;DHT22;18221;38.704;0.152;2022-09-03T14:41:05;30.60;99.90
10175;DHT22;18221;38.704;0.152;2022-09-03T14:44:03;30.50;99.90
10175;DHT22;18221;38.704;0.152;2022-09-03T14:46:55;30.50;99.90
10175;DHT22;18221;38.704;0.152;2022-09-03T14:49:49;30.60;99.90
10175;DHT22;18221;38.704;0.152;2022-09-03T14:52:53;30.60;99.90
10175;DHT22;18221;38.704;0.152;2022-09-03T14:55:55;30.60;99.90
10175;DHT22;18221;38.704;0.152;2022-09-03T14:58:47;30.60;99.90
10175;DHT22;18221;38.704;0.152;2022-09-03T15:01:31;30.40;99.90
10175;DHT22;18221;38.704;0.152;2022-09-03T15:04:23;30.90;99.90
10175;DHT22;18221;38.704;0.152;2022-09-03T15:07:22;30.90;99.90
10175;DHT22;18221;38.704;0.152;2022-09-03T15:10:03;31.00;99.90
10175;DHT22;18221;38.704;0.152;2022-09-03T15:12:44;30.70;99.90
10175;DHT22;18221;38.704;0.152;2022-09-03T15:15:18;30.40;99.90
10175;DHT22;18221;38.704;0.152;2022-09-03T15:18:03;30.30;99.90
10175;DHT22;18221;38.704;0.152;2022-09-03T15:20:48;30.10;99.90
10175;DHT22;18221;38.704;0.152;2022-09-03T15:23:43;30.00;99.90
10175;DHT22;18221;38.704;0.152;2022-09-03T15:26:45;30.00;99.90
10175;DHT22;18221;38.704;0.152;2022-09-03T15:29:33;29.90;99.90
10175;DHT22;18221;38.704;0.152;2022-09-03T15:32:35;29.80;99.90
10175;DHT22;18221;38.704;0.152;2022-09-03T15:35:24;29.80;99.90
10175;DHT22;18221;38.704;0.152;2022-09-03T15:38:08;29.80;99.90
10175;DHT22;18221;38.704;0.152;2022-09-03T15:40:50;29.90;99.90
10175;DHT22;18221;38.704;0.152;2022-09-03T15:43:25;29.90;99.90
10175;DHT22;18221;38.704;0.152;2022-09-03T15:45:59;29.80;99.90
10175;DHT22;18221;38.704;0.152;2022-09-03T15:48:44;29.80;99.90
10175;DHT22;18221;38.704;0.152;2022-09-03T15:51:19;29.70;99.90
10175;DHT22;18221;38.704;0.152;2022-09-03T15:53:58;29.60;99.90
10175;DHT22;18221;38.704;0.152;2022-09-03T15:56:34;29.80;99.90
10175;DHT22;18221;38.704;0.152;2022-09-03T15:59:14;30.10;99.90
10175;DHT22;18221;38.704;0.152;2022-09-03T16:01:51;30.00;99.90
10175;DHT22;18221;38.704;0.152;2022-09-03T16:04:41;29.70;99.90
10175;DHT22;18221;38.704;0.152;2022-09-03T16:07:24;29.50;99.90
10175;DHT22;18221;38.704;0.152;2022-09-03T16:10:06;29.60;99.90
10175;DHT22;18221;38.704;0.152;2022-09-03T16:12:48;29.70;99.90
10175;DHT22;18221;38.704;0.152;2022-09-03T16:15:31;29.60;99.90
10175;DHT22;18221;38.704;0.152;2022-09-03T16:18:06;29.40;99.90
10175;DHT22;18221;38.704;0.152;2022-09-03T16:20:43;29.20;99.90
10175;DHT22;18221;38.704;0.152;2022-09-03T16:23:25;29.20;99.90
10175;DHT22;18221;38.704;0.152;2022-09-03T16:26:06;29.00;99.90
10175;DHT22;18221;38.704;0.152;2022-09-03T16:28:44;28.90;99.90
10175;DHT22;18221;38.704;0.152;2022-09-03T16:31:27;28.90;99.90
10175;DHT22;18221;38.704;0.152;2022-09-03T16:34:13;28.70;99.90
10175;DHT22;18221;38.704;0.152;2022-09-03T16:36:53;28.60;99.90
10175;DHT22;18221;38.704;0.152;2022-09-03T16:39:39;28.50;99.90
10175;DHT22;18221;38.704;0.152;2022-09-03T16:42:24;28.50;99.90
10175;DHT22;18221;38.704;0.152;2022-09-03T16:45:04;28.40;99.90
10175;DHT22;18221;38.704;0.152;2022-09-03T16:47:51;28.30;99.90
10175;DHT22;18221;38.704;0.152;2022-09-03T16:50:44;28.20;99.90